sensor_id;sensor_type;location;lat;lon;timestamp;P1;durP1;ratioP1;P2;durP2;ratioP2
27491;SDS011;14927;51.210;6.838;2023-12-04T00:00:04;23.10;;;13.65;;
27491;SDS011;14927;51.210;6.838;2023-12-04T00:02:51;20.20;;;12.55;;
27491;SDS011;14927;51.210;6.838;2023-12-04T00:05:35;21.48;;;13.68;;
27491;SDS011;14927;51.210;6.838;2023-12-04T00:08:20;23.10;;;13.77;;
27491;SDS011;14927;51.210;6.838;2023-12-04T00:11:05;22.23;;;13.75;;
27491;SDS011;14927;51.210;6.838;2023-12-04T00:13:50;20.27;;;12.93;;
27491;SDS011;14927;51.210;6.838;2023-12-04T00:16:34;20.83;;;12.70;;
27491;SDS011;14927;51.210;6.838;2023-12-04T00:19:19;21.67;;;12.52;;
27491;SDS011;14927;51.210;6.838;2023-12-04T00:22:03;23.25;;;14.02;;
27491;SDS011;14927;51.210;6.838;2023-12-04T00:24:48;21.08;;;12.95;;
27491;SDS011;14927;51.210;6.838;2023-12-04T00:27:32;20.40;;;12.32;;
27491;SDS011;14927;51.210;6.838;2023-12-04T00:30:17;21.67;;;12.43;;
27491;SDS011;14927;51.210;6.838;2023-12-04T00:33:02;22.35;;;12.63;;
27491;SDS011;14927;51.210;6.838;2023-12-04T00:35:46;20.55;;;12.23;;
27491;SDS011;14927;51.210;6.838;2023-12-04T00:38:31;21.30;;;12.75;;
27491;SDS011;14927;51.210;6.838;2023-12-04T00:41:15;19.90;;;11.95;;
27491;SDS011;14927;51.210;6.838;2023-12-04T00:44:00;20.00;;;12.35;;
27491;SDS011;14927;51.210;6.838;2023-12-04T00:46:45;19.33;;;12.05;;
27491;SDS011;14927;51.210;6.838;2023-12-04T00:49:29;19.15;;;11.60;;
27491;SDS011;14927;51.210;6.838;2023-12-04T00:52:14;17.73;;;11.32;;
27491;SDS011;14927;51.210;6.838;2023-12-04T00:54:59;18.90;;;11.23;;
27491;SDS011;14927;51.210;6.838;2023-12-04T00:57:43;18.95;;;11.73;;
27491;SDS011;14927;51.210;6.838;2023-12-04T01:00:28;17.35;;;10.52;;
27491;SDS011;14927;51.210;6.838;2023-12-04T01:03:13;17.67;;;11.38;;
27491;SDS011;14927;51.210;6.838;2023-12-04T01:05:57;18.98;;;11.38;;
27491;SDS011;14927;51.210;6.838;2023-12-04T01:08:42;17.45;;;10.80;;
27491;SDS011;14927;51.210;6.838;2023-12-04T01:11:27;18.48;;;11.40;;
27491;SDS011;14927;51.210;6.838;2023-12-04T01:14:11;17.67;;;11.30;;
27491;SDS011;14927;51.210;6.838;2023-12-04T01:16:56;15.73;;;10.60;;
27491;SDS011;14927;51.210;6.838;2023-12-04T01:19:41;18.58;;;11.57;;
27491;SDS011;14927;51.210;6.838;2023-12-04T01:22:25;18.50;;;11.77;;
27491;SDS011;14927;51.210;6.838;2023-12-04T01:25:10;17.63;;;11.38;;
27491;SDS011;14927;51.210;6.838;2023-12-04T01:27:54;15.95;;;10.65;;
27491;SDS011;14927;51.210;6.838;2023-12-04T01:30:39;17.63;;;11.00;;
27491;SDS011;14927;51.210;6.838;2023-12-04T01:33:24;17.95;;;10.65;;
27491;SDS011;14927;51.210;6.838;2023-12-04T01:36:08;16.90;;;10.48;;
27491;SDS011;14927;51.210;6.838;2023-12-04T01:38:53;18.45;;;11.45;;
27491;SDS011;14927;51.210;6.838;2023-12-04T01:41:38;17.00;;;10.85;;
27491;SDS011;14927;51.210;6.838;2023-12-04T01:44:24;15.55;;;10.20;;
27491;SDS011;14927;51.210;6.838;2023-12-04T01:47:09;14.85;;;10.13;;
27491;SDS011;14927;51.210;6.838;2023-12-04T01:49:54;18.02;;;10.88;;
27491;SDS011;14927;51.210;6.838;2023-12-04T01:52:38;16.65;;;10.43;;
27491;SDS011;14927;51.210;6.838;2023-12-04T01:55:23;19.10;;;11.15;;
27491;SDS011;14927;51.210;6.838;2023-12-04T01:58:11;17.15;;;10.85;;
27491;SDS011;14927;51.210;6.838;2023-12-04T02:00:56;15.45;;;9.77;;
27491;SDS011;14927;51.210;6.838;2023-12-04T02:03:41;14.63;;;10.38;;
27491;SDS011;14927;51.210;6.838;2023-12-04T02:06:26;15.05;;;9.60;;
27491;SDS011;14927;51.210;6.838;2023-12-04T02:09:10;14.60;;;9.30;;
27491;SDS011;14927;51.210;6.838;2023-12-04T02:11:57;15.95;;;10.10;;
27491;SDS011;14927;51.210;6.838;2023-12-04T02:14:42;14.90;;;9.30;;
27491;SDS011;14927;51.210;6.838;2023-12-04T02:17:27;16.75;;;10.10;;
27491;SDS011;14927;51.210;6.838;2023-12-04T02:20:13;16.20;;;10.13;;
27491;SDS011;14927;51.210;6.838;2023-12-04T02:22:58;15.70;;;10.02;;
27491;SDS011;14927;51.210;6.838;2023-12-04T02:25:43;14.35;;;9.48;;
27491;SDS011;14927;51.210;6.838;2023-12-04T02:28:34;15.02;;;9.85;;
27491;SDS011;14927;51.210;6.838;2023-12-04T02:31:21;16.55;;;9.65;;
27491;SDS011;14927;51.210;6.838;2023-12-04T02:34:07;15.23;;;9.68;;
27491;SDS011;14927;51.210;6.838;2023-12-04T02:36:54;17.83;;;9.90;;
27491;SDS011;14927;51.210;6.838;2023-12-04T02:39:40;15.15;;;9.45;;
27491;SDS011;14927;51.210;6.838;2023-12-04T02:42:26;14.30;;;9.10;;
27491;SDS011;14927;51.210;6.838;2023-12-04T02:45:11;14.18;;;9.48;;
27491;SDS011;14927;51.210;6.838;2023-12-04T02:47:55;15.85;;;10.48;;
27491;SDS011;14927;51.210;6.838;2023-12-04T02:50:40;15.38;;;9.73;;
27491;SDS011;14927;51.210;6.838;2023-12-04T02:53:24;15.98;;;10.20;;
27491;SDS011;14927;51.210;6.838;2023-12-04T02:56:09;14.73;;;9.45;;
27491;SDS011;14927;51.210;6.838;2023-12-04T02:58:54;15.32;;;9.90;;
27491;SDS011;14927;51.210;6.838;2023-12-04T03:01:39;16.23;;;9.50;;
27491;SDS011;14927;51.210;6.838;2023-12-04T03:04:23;15.93;;;9.23;;
27491;SDS011;14927;51.210;6.838;2023-12-04T03:07:08;14.02;;;9.20;;
27491;SDS011;14927;51.210;6.838;2023-12-04T03:09:53;15.05;;;9.60;;
27491;SDS011;14927;51.210;6.838;2023-12-04T03:12:37;15.13;;;10.13;;
27491;SDS011;14927;51.210;6.838;2023-12-04T03:15:22;14.75;;;8.95;;
27491;SDS011;14927;51.210;6.838;2023-12-04T03:18:07;15.05;;;8.95;;
27491;SDS011;14927;51.210;6.838;2023-12-04T03:20:51;14.73;;;9.77;;
27491;SDS011;14927;51.210;6.838;2023-12-04T03:23:36;17.40;;;10.02;;
27491;SDS011;14927;51.210;6.838;2023-12-04T03:26:21;15.40;;;8.93;;
27491;SDS011;14927;51.210;6.838;2023-12-04T03:29:05;15.38;;;9.65;;
27491;SDS011;14927;51.210;6.838;2023-12-04T03:31:50;13.70;;;8.70;;
27491;SDS011;14927;51.210;6.838;2023-12-04T03:34:34;14.85;;;9.10;;
27491;SDS011;14927;51.210;6.838;2023-12-04T03:37:19;12.55;;;8.27;;
27491;SDS011;14927;51.210;6.838;2023-12-04T03:40:04;12.55;;;8.65;;
27491;SDS011;14927;51.210;6.838;2023-12-04T03:42:49;13.52;;;8.50;;
27491;SDS011;14927;51.210;6.838;2023-12-04T03:45:34;14.48;;;9.18;;
27491;SDS011;14927;51.210;6.838;2023-12-04T03:48:18;12.80;;;8.50;;
27491;SDS011;14927;51.210;6.838;2023-12-04T03:51:04;14.35;;;8.40;;
27491;SDS011;14927;51.210;6.838;2023-12-04T03:53:48;12.98;;;8.23;;
27491;SDS011;14927;51.210;6.838;2023-12-04T03:56:33;13.85;;;8.57;;
27491;SDS011;14927;51.210;6.838;2023-12-04T03:59:18;13.63;;;8.35;;
27491;SDS011;14927;51.210;6.838;2023-12-04T04:02:03;12.55;;;7.95;;
27491;SDS011;14927;51.210;6.838;2023-12-04T04:04:47;12.77;;;7.63;;
27491;SDS011;14927;51.210;6.838;2023-12-04T04:07:32;13.23;;;8.10;;
27491;SDS011;14927;51.210;6.838;2023-12-04T04:10:16;15.55;;;8.60;;
27491;SDS011;14927;51.210;6.838;2023-12-04T04:13:01;11.98;;;7.47;;
27491;SDS011;14927;51.210;6.838;2023-12-04T04:15:46;13.68;;;7.90;;
27491;SDS011;14927;51.210;6.838;2023-12-04T04:18:30;13.60;;;8.00;;
27491;SDS011;14927;51.210;6.838;2023-12-04T04:21:15;15.82;;;8.18;;
27491;SDS011;14927;51.210;6.838;2023-12-04T04:23:59;12.48;;;7.70;;
27491;SDS011;14927;51.210;6.838;2023-12-04T04:26:44;14.25;;;8.73;;
27491;SDS011;14927;51.210;6.838;2023-12-04T04:29:29;13.68;;;8.15;;
27491;SDS011;14927;51.210;6.838;2023-12-04T04:32:13;12.15;;;7.75;;
27491;SDS011;14927;51.210;6.838;2023-12-04T04:34:58;12.50;;;7.63;;
27491;SDS011;14927;51.210;6.838;2023-12-04T04:37:42;13.43;;;8.32;;
27491;SDS011;14927;51.210;6.838;2023-12-04T04:40:27;15.90;;;7.63;;
27491;SDS011;14927;51.210;6.838;2023-12-04T04:43:12;11.80;;;8.07;;
27491;SDS011;14927;51.210;6.838;2023-12-04T04:45:56;13.82;;;8.48;;
27491;SDS011;14927;51.210;6.838;2023-12-04T04:48:41;12.75;;;8.13;;
27491;SDS011;14927;51.210;6.838;2023-12-04T04:51:27;13.40;;;8.18;;
27491;SDS011;14927;51.210;6.838;2023-12-04T04:54:13;13.45;;;8.35;;
27491;SDS011;14927;51.210;6.838;2023-12-04T04:56:57;12.65;;;8.25;;
27491;SDS011;14927;51.210;6.838;2023-12-04T04:59:42;13.32;;;8.60;;
27491;SDS011;14927;51.210;6.838;2023-12-04T05:02:26;14.48;;;9.57;;
27491;SDS011;14927;51.210;6.838;2023-12-04T05:05:11;12.57;;;8.15;;
27491;SDS011;14927;51.210;6.838;2023-12-04T05:07:55;15.35;;;8.73;;
27491;SDS011;14927;51.210;6.838;2023-12-04T05:10:40;13.98;;;8.98;;
27491;SDS011;14927;51.210;6.838;2023-12-04T05:13:25;13.05;;;8.75;;
27491;SDS011;14927;51.210;6.838;2023-12-04T05:16:09;13.23;;;9.20;;
27491;SDS011;14927;51.210;6.838;2023-12-04T05:18:54;14.63;;;9.07;;
27491;SDS011;14927;51.210;6.838;2023-12-04T05:21:39;17.50;;;9.18;;
27491;SDS011;14927;51.210;6.838;2023-12-04T05:24:23;15.57;;;10.07;;
27491;SDS011;14927;51.210;6.838;2023-12-04T05:27:08;14.88;;;9.20;;
27491;SDS011;14927;51.210;6.838;2023-12-04T05:29:53;15.98;;;9.48;;
27491;SDS011;14927;51.210;6.838;2023-12-04T05:32:37;15.02;;;9.30;;
27491;SDS011;14927;51.210;6.838;2023-12-04T05:35:22;16.33;;;9.45;;
27491;SDS011;14927;51.210;6.838;2023-12-04T05:38:06;17.48;;;10.63;;
27491;SDS011;14927;51.210;6.838;2023-12-04T05:40:52;15.00;;;9.48;;
27491;SDS011;14927;51.210;6.838;2023-12-04T05:43:38;15.00;;;9.50;;
27491;SDS011;14927;51.210;6.838;2023-12-04T05:46:22;15.30;;;9.68;;
27491;SDS011;14927;51.210;6.838;2023-12-04T05:49:07;15.23;;;9.65;;
27491;SDS011;14927;51.210;6.838;2023-12-04T05:51:52;17.50;;;10.48;;
27491;SDS011;14927;51.210;6.838;2023-12-04T05:54:36;15.07;;;9.50;;
27491;SDS011;14927;51.210;6.838;2023-12-04T05:57:21;14.73;;;9.38;;
27491;SDS011;14927;51.210;6.838;2023-12-04T06:00:06;18.25;;;9.55;;
27491;SDS011;14927;51.210;6.838;2023-12-04T06:02:57;15.60;;;9.98;;
27491;SDS011;14927;51.210;6.838;2023-12-04T06:05:42;14.13;;;9.48;;
27491;SDS011;14927;51.210;6.838;2023-12-04T06:08:26;15.73;;;10.43;;
27491;SDS011;14927;51.210;6.838;2023-12-04T06:11:11;16.38;;;10.73;;
27491;SDS011;14927;51.210;6.838;2023-12-04T06:13:56;17.70;;;10.43;;
27491;SDS011;14927;51.210;6.838;2023-12-04T06:16:40;17.15;;;10.25;;
27491;SDS011;14927;51.210;6.838;2023-12-04T06:19:25;17.90;;;11.27;;
27491;SDS011;14927;51.210;6.838;2023-12-04T06:22:11;15.82;;;10.25;;
27491;SDS011;14927;51.210;6.838;2023-12-04T06:24:55;17.80;;;11.00;;
27491;SDS011;14927;51.210;6.838;2023-12-04T06:27:40;20.20;;;11.15;;
27491;SDS011;14927;51.210;6.838;2023-12-04T06:30:25;17.00;;;10.98;;
27491;SDS011;14927;51.210;6.838;2023-12-04T06:33:10;19.35;;;10.70;;
27491;SDS011;14927;51.210;6.838;2023-12-04T06:35:56;16.90;;;10.43;;
27491;SDS011;14927;51.210;6.838;2023-12-04T06:38:41;17.27;;;10.63;;
27491;SDS011;14927;51.210;6.838;2023-12-04T06:41:27;16.98;;;10.70;;
27491;SDS011;14927;51.210;6.838;2023-12-04T06:44:12;16.42;;;10.32;;
27491;SDS011;14927;51.210;6.838;2023-12-04T06:50:19;15.82;;;10.48;;
27491;SDS011;14927;51.210;6.838;2023-12-04T06:53:03;16.63;;;10.77;;
27491;SDS011;14927;51.210;6.838;2023-12-04T06:55:48;15.77;;;9.77;;
27491;SDS011;14927;51.210;6.838;2023-12-04T06:58:32;17.63;;;10.57;;
27491;SDS011;14927;51.210;6.838;2023-12-04T07:01:17;16.48;;;10.32;;
27491;SDS011;14927;51.210;6.838;2023-12-04T07:04:01;15.18;;;10.07;;
27491;SDS011;14927;51.210;6.838;2023-12-04T07:06:53;15.55;;;9.75;;
27491;SDS011;14927;51.210;6.838;2023-12-04T07:09:42;22.85;;;10.27;;
27491;SDS011;14927;51.210;6.838;2023-12-04T07:12:26;16.83;;;10.68;;
27491;SDS011;14927;51.210;6.838;2023-12-04T07:15:11;16.65;;;10.50;;
27491;SDS011;14927;51.210;6.838;2023-12-04T07:17:58;14.85;;;9.88;;
27491;SDS011;14927;51.210;6.838;2023-12-04T07:20:43;16.92;;;10.40;;
27491;SDS011;14927;51.210;6.838;2023-12-04T07:23:27;14.85;;;10.23;;
27491;SDS011;14927;51.210;6.838;2023-12-04T07:26:27;15.70;;;9.80;;
27491;SDS011;14927;51.210;6.838;2023-12-04T07:29:12;14.77;;;9.48;;
27491;SDS011;14927;51.210;6.838;2023-12-04T07:31:56;14.30;;;9.60;;
27491;SDS011;14927;51.210;6.838;2023-12-04T07:34:42;16.17;;;9.63;;
27491;SDS011;14927;51.210;6.838;2023-12-04T07:37:27;16.17;;;10.23;;
27491;SDS011;14927;51.210;6.838;2023-12-04T07:40:14;13.60;;;9.13;;
27491;SDS011;14927;51.210;6.838;2023-12-04T07:42:59;15.23;;;9.90;;
27491;SDS011;14927;51.210;6.838;2023-12-04T07:45:43;12.65;;;8.93;;
27491;SDS011;14927;51.210;6.838;2023-12-04T07:48:28;13.98;;;9.27;;
27491;SDS011;14927;51.210;6.838;2023-12-04T07:51:14;14.48;;;9.93;;
27491;SDS011;14927;51.210;6.838;2023-12-04T07:53:58;14.93;;;9.50;;
27491;SDS011;14927;51.210;6.838;2023-12-04T07:56:43;16.17;;;9.90;;
27491;SDS011;14927;51.210;6.838;2023-12-04T07:59:28;18.00;;;9.25;;
27491;SDS011;14927;51.210;6.838;2023-12-04T08:02:12;14.93;;;9.10;;
27491;SDS011;14927;51.210;6.838;2023-12-04T08:04:57;13.30;;;8.65;;
27491;SDS011;14927;51.210;6.838;2023-12-04T08:07:42;12.85;;;8.35;;
27491;SDS011;14927;51.210;6.838;2023-12-04T08:10:26;12.95;;;8.65;;
27491;SDS011;14927;51.210;6.838;2023-12-04T08:13:11;13.43;;;8.55;;
27491;SDS011;14927;51.210;6.838;2023-12-04T08:15:56;12.45;;;8.13;;
27491;SDS011;14927;51.210;6.838;2023-12-04T08:18:40;11.13;;;7.90;;
27491;SDS011;14927;51.210;6.838;2023-12-04T08:21:25;11.60;;;7.65;;
27491;SDS011;14927;51.210;6.838;2023-12-04T08:24:09;12.18;;;7.78;;
27491;SDS011;14927;51.210;6.838;2023-12-04T08:26:54;11.05;;;7.47;;
27491;SDS011;14927;51.210;6.838;2023-12-04T08:29:41;11.60;;;7.30;;
27491;SDS011;14927;51.210;6.838;2023-12-04T08:32:25;12.02;;;7.32;;
27491;SDS011;14927;51.210;6.838;2023-12-04T08:35:11;9.73;;;6.97;;
27491;SDS011;14927;51.210;6.838;2023-12-04T08:37:56;10.98;;;7.07;;
27491;SDS011;14927;51.210;6.838;2023-12-04T08:40:40;10.63;;;6.97;;
27491;SDS011;14927;51.210;6.838;2023-12-04T08:43:26;14.18;;;7.45;;
27491;SDS011;14927;51.210;6.838;2023-12-04T08:46:13;13.05;;;6.93;;
27491;SDS011;14927;51.210;6.838;2023-12-04T08:48:57;13.60;;;7.40;;
27491;SDS011;14927;51.210;6.838;2023-12-04T08:51:42;11.00;;;7.15;;
27491;SDS011;14927;51.210;6.838;2023-12-04T08:54:27;11.65;;;7.20;;
27491;SDS011;14927;51.210;6.838;2023-12-04T08:57:11;14.90;;;7.05;;
27491;SDS011;14927;51.210;6.838;2023-12-04T08:59:56;11.68;;;6.97;;
27491;SDS011;14927;51.210;6.838;2023-12-04T09:02:43;18.13;;;7.05;;
27491;SDS011;14927;51.210;6.838;2023-12-04T09:05:28;14.27;;;6.47;;
27491;SDS011;14927;51.210;6.838;2023-12-04T09:08:13;11.85;;;6.53;;
27491;SDS011;14927;51.210;6.838;2023-12-04T09:10:57;12.68;;;6.68;;
27491;SDS011;14927;51.210;6.838;2023-12-04T09:13:42;12.60;;;6.15;;
27491;SDS011;14927;51.210;6.838;2023-12-04T09:16:27;9.82;;;6.70;;
27491;SDS011;14927;51.210;6.838;2023-12-04T09:19:11;9.75;;;6.53;;
27491;SDS011;14927;51.210;6.838;2023-12-04T09:21:55;13.30;;;6.68;;
27491;SDS011;14927;51.210;6.838;2023-12-04T09:24:41;13.68;;;7.78;;
27491;SDS011;14927;51.210;6.838;2023-12-04T09:27:26;12.82;;;6.80;;
27491;SDS011;14927;51.210;6.838;2023-12-04T09:30:13;10.50;;;6.72;;
27491;SDS011;14927;51.210;6.838;2023-12-04T09:32:58;9.45;;;6.32;;
27491;SDS011;14927;51.210;6.838;2023-12-04T09:35:49;10.13;;;6.40;;
27491;SDS011;14927;51.210;6.838;2023-12-04T09:38:34;8.65;;;6.10;;
27491;SDS011;14927;51.210;6.838;2023-12-04T09:41:22;8.55;;;6.13;;
27491;SDS011;14927;51.210;6.838;2023-12-04T09:44:07;11.00;;;6.60;;
27491;SDS011;14927;51.210;6.838;2023-12-04T09:46:54;9.52;;;6.80;;
27491;SDS011;14927;51.210;6.838;2023-12-04T09:49:39;9.00;;;6.25;;
27491;SDS011;14927;51.210;6.838;2023-12-04T09:52:27;10.00;;;6.43;;
27491;SDS011;14927;51.210;6.838;2023-12-04T09:55:20;11.73;;;6.40;;
27491;SDS011;14927;51.210;6.838;2023-12-04T09:58:06;10.98;;;6.70;;
27491;SDS011;14927;51.210;6.838;2023-12-04T10:00:51;11.35;;;6.53;;
27491;SDS011;14927;51.210;6.838;2023-12-04T10:03:42;9.70;;;6.15;;
27491;SDS011;14927;51.210;6.838;2023-12-04T10:06:27;11.68;;;6.85;;
27491;SDS011;14927;51.210;6.838;2023-12-04T10:09:13;9.82;;;6.13;;
27491;SDS011;14927;51.210;6.838;2023-12-04T10:12:18;8.70;;;5.88;;
27491;SDS011;14927;51.210;6.838;2023-12-04T10:15:30;9.60;;;6.32;;
27491;SDS011;14927;51.210;6.838;2023-12-04T10:18:25;9.50;;;6.38;;
27491;SDS011;14927;51.210;6.838;2023-12-04T10:21:10;9.63;;;6.82;;
27491;SDS011;14927;51.210;6.838;2023-12-04T10:23:58;10.95;;;5.82;;
27491;SDS011;14927;51.210;6.838;2023-12-04T10:26:49;14.02;;;6.85;;
27491;SDS011;14927;51.210;6.838;2023-12-04T10:29:48;10.85;;;6.55;;
27491;SDS011;14927;51.210;6.838;2023-12-04T10:32:40;11.17;;;6.60;;
27491;SDS011;14927;51.210;6.838;2023-12-04T10:35:25;8.85;;;6.38;;
27491;SDS011;14927;51.210;6.838;2023-12-04T10:38:13;10.68;;;6.80;;
27491;SDS011;14927;51.210;6.838;2023-12-04T10:40:58;10.23;;;7.07;;
27491;SDS011;14927;51.210;6.838;2023-12-04T10:43:59;10.05;;;6.68;;
27491;SDS011;14927;51.210;6.838;2023-12-04T10:46:44;10.07;;;6.47;;
27491;SDS011;14927;51.210;6.838;2023-12-04T10:49:31;11.88;;;7.00;;
27491;SDS011;14927;51.210;6.838;2023-12-04T10:52:17;9.55;;;6.90;;
27491;SDS011;14927;51.210;6.838;2023-12-04T10:55:05;11.60;;;6.40;;
27491;SDS011;14927;51.210;6.838;2023-12-04T10:57:51;11.43;;;7.03;;
27491;SDS011;14927;51.210;6.838;2023-12-04T11:00:43;13.35;;;7.13;;
27491;SDS011;14927;51.210;6.838;2023-12-04T11:04:02;9.77;;;6.43;;
27491;SDS011;14927;51.210;6.838;2023-12-04T11:06:42;10.27;;;7.03;;
27491;SDS011;14927;51.210;6.838;2023-12-04T11:09:32;12.50;;;7.63;;
27491;SDS011;14927;51.210;6.838;2023-12-04T11:12:20;11.93;;;7.00;;
27491;SDS011;14927;51.210;6.838;2023-12-04T11:15:09;12.45;;;7.32;;
27491;SDS011;14927;51.210;6.838;2023-12-04T11:18:00;11.57;;;6.93;;
27491;SDS011;14927;51.210;6.838;2023-12-04T11:20:48;11.80;;;7.57;;
27491;SDS011;14927;51.210;6.838;2023-12-04T11:23:40;10.35;;;7.45;;
27491;SDS011;14927;51.210;6.838;2023-12-04T11:26:26;10.73;;;7.03;;
27491;SDS011;14927;51.210;6.838;2023-12-04T11:29:11;12.23;;;7.70;;
27491;SDS011;14927;51.210;6.838;2023-12-04T11:31:57;11.02;;;7.40;;
27491;SDS011;14927;51.210;6.838;2023-12-04T11:34:50;13.57;;;7.57;;
27491;SDS011;14927;51.210;6.838;2023-12-04T11:37:39;14.73;;;8.23;;
27491;SDS011;14927;51.210;6.838;2023-12-04T11:40:27;11.70;;;7.35;;
27491;SDS011;14927;51.210;6.838;2023-12-04T11:43:22;12.55;;;7.75;;
27491;SDS011;14927;51.210;6.838;2023-12-04T11:46:11;14.63;;;8.43;;
27491;SDS011;14927;51.210;6.838;2023-12-04T11:48:56;13.95;;;8.05;;
27491;SDS011;14927;51.210;6.838;2023-12-04T11:52:12;12.35;;;8.05;;
27491;SDS011;14927;51.210;6.838;2023-12-04T11:57:50;13.57;;;7.95;;
27491;SDS011;14927;51.210;6.838;2023-12-04T12:00:35;14.45;;;8.30;;
27491;SDS011;14927;51.210;6.838;2023-12-04T12:03:21;15.25;;;8.25;;
27491;SDS011;14927;51.210;6.838;2023-12-04T12:06:06;16.40;;;9.10;;
27491;SDS011;14927;51.210;6.838;2023-12-04T12:08:52;13.80;;;9.15;;
27491;SDS011;14927;51.210;6.838;2023-12-04T12:11:38;14.77;;;8.85;;
27491;SDS011;14927;51.210;6.838;2023-12-04T12:14:23;11.90;;;8.05;;
27491;SDS011;14927;51.210;6.838;2023-12-04T12:17:08;13.32;;;8.50;;
27491;SDS011;14927;51.210;6.838;2023-12-04T12:19:58;15.35;;;8.43;;
27491;SDS011;14927;51.210;6.838;2023-12-04T12:22:44;13.35;;;8.63;;
27491;SDS011;14927;51.210;6.838;2023-12-04T12:25:29;13.30;;;8.82;;
27491;SDS011;14927;51.210;6.838;2023-12-04T12:28:14;14.93;;;8.77;;
27491;SDS011;14927;51.210;6.838;2023-12-04T12:31:02;12.60;;;8.25;;
27491;SDS011;14927;51.210;6.838;2023-12-04T12:33:47;14.38;;;8.57;;
27491;SDS011;14927;51.210;6.838;2023-12-04T12:36:32;12.85;;;8.32;;
27491;SDS011;14927;51.210;6.838;2023-12-04T12:39:16;14.02;;;8.52;;
27491;SDS011;14927;51.210;6.838;2023-12-04T12:42:03;14.38;;;8.45;;
27491;SDS011;14927;51.210;6.838;2023-12-04T12:44:49;13.27;;;8.52;;
27491;SDS011;14927;51.210;6.838;2023-12-04T12:47:34;12.63;;;7.93;;
27491;SDS011;14927;51.210;6.838;2023-12-04T12:50:19;14.90;;;8.70;;
27491;SDS011;14927;51.210;6.838;2023-12-04T12:53:04;13.38;;;7.47;;
27491;SDS011;14927;51.210;6.838;2023-12-04T12:55:49;14.45;;;8.80;;
27491;SDS011;14927;51.210;6.838;2023-12-04T12:58:34;11.55;;;8.13;;
27491;SDS011;14927;51.210;6.838;2023-12-04T13:01:19;13.52;;;8.68;;
27491;SDS011;14927;51.210;6.838;2023-12-04T13:04:13;12.45;;;7.93;;
27491;SDS011;14927;51.210;6.838;2023-12-04T13:07:02;11.70;;;7.88;;
27491;SDS011;14927;51.210;6.838;2023-12-04T13:09:52;11.85;;;7.40;;
27491;SDS011;14927;51.210;6.838;2023-12-04T13:12:37;12.63;;;7.78;;
27491;SDS011;14927;51.210;6.838;2023-12-04T13:15:21;11.65;;;7.40;;
27491;SDS011;14927;51.210;6.838;2023-12-04T13:18:06;12.32;;;7.88;;
27491;SDS011;14927;51.210;6.838;2023-12-04T13:20:51;10.07;;;6.40;;
27491;SDS011;14927;51.210;6.838;2023-12-04T13:23:36;10.65;;;6.85;;
27491;SDS011;14927;51.210;6.838;2023-12-04T13:26:20;11.13;;;7.00;;
27491;SDS011;14927;51.210;6.838;2023-12-04T13:29:05;9.57;;;6.97;;
27491;SDS011;14927;51.210;6.838;2023-12-04T13:31:49;9.27;;;6.90;;
27491;SDS011;14927;51.210;6.838;2023-12-04T13:34:34;10.25;;;6.82;;
27491;SDS011;14927;51.210;6.838;2023-12-04T13:37:19;12.27;;;7.30;;
27491;SDS011;14927;51.210;6.838;2023-12-04T13:40:03;9.98;;;7.20;;
27491;SDS011;14927;51.210;6.838;2023-12-04T13:42:52;12.65;;;7.93;;
27491;SDS011;14927;51.210;6.838;2023-12-04T13:45:56;11.30;;;6.70;;
27491;SDS011;14927;51.210;6.838;2023-12-04T13:48:41;9.15;;;6.80;;
27491;SDS011;14927;51.210;6.838;2023-12-04T13:51:25;11.60;;;7.25;;
27491;SDS011;14927;51.210;6.838;2023-12-04T13:54:11;11.32;;;6.90;;
27491;SDS011;14927;51.210;6.838;2023-12-04T13:57:04;10.23;;;6.18;;
27491;SDS011;14927;51.210;6.838;2023-12-04T13:59:49;9.77;;;6.15;;
27491;SDS011;14927;51.210;6.838;2023-12-04T14:02:34;9.45;;;5.97;;
27491;SDS011;14927;51.210;6.838;2023-12-04T14:05:20;9.57;;;6.22;;
27491;SDS011;14927;51.210;6.838;2023-12-04T14:08:06;12.30;;;6.18;;
27491;SDS011;14927;51.210;6.838;2023-12-04T14:10:51;10.02;;;6.40;;
27491;SDS011;14927;51.210;6.838;2023-12-04T14:13:35;9.02;;;6.32;;
27491;SDS011;14927;51.210;6.838;2023-12-04T14:16:20;9.77;;;6.15;;
27491;SDS011;14927;51.210;6.838;2023-12-04T14:19:04;10.85;;;6.00;;
27491;SDS011;14927;51.210;6.838;2023-12-04T14:21:49;9.25;;;6.47;;
27491;SDS011;14927;51.210;6.838;2023-12-04T14:24:33;8.85;;;5.50;;
27491;SDS011;14927;51.210;6.838;2023-12-04T14:27:19;9.25;;;5.35;;
27491;SDS011;14927;51.210;6.838;2023-12-04T14:30:03;6.90;;;4.97;;
27491;SDS011;14927;51.210;6.838;2023-12-04T14:32:49;8.20;;;5.70;;
27491;SDS011;14927;51.210;6.838;2023-12-04T14:35:34;7.47;;;5.03;;
27491;SDS011;14927;51.210;6.838;2023-12-04T14:38:20;7.60;;;5.32;;
27491;SDS011;14927;51.210;6.838;2023-12-04T14:41:06;8.25;;;5.35;;
27491;SDS011;14927;51.210;6.838;2023-12-04T14:43:52;9.50;;;5.38;;
27491;SDS011;14927;51.210;6.838;2023-12-04T14:46:38;8.95;;;4.90;;
27491;SDS011;14927;51.210;6.838;2023-12-04T14:49:22;7.97;;;5.50;;
27491;SDS011;14927;51.210;6.838;2023-12-04T14:52:07;7.55;;;5.18;;
27491;SDS011;14927;51.210;6.838;2023-12-04T14:54:52;6.25;;;4.88;;
27491;SDS011;14927;51.210;6.838;2023-12-04T14:57:56;7.50;;;5.13;;
27491;SDS011;14927;51.210;6.838;2023-12-04T15:00:59;8.05;;;5.25;;
27491;SDS011;14927;51.210;6.838;2023-12-04T15:04:02;9.20;;;5.80;;
27491;SDS011;14927;51.210;6.838;2023-12-04T15:07:05;8.63;;;5.13;;
27491;SDS011;14927;51.210;6.838;2023-12-04T15:10:05;8.68;;;5.55;;
27491;SDS011;14927;51.210;6.838;2023-12-04T15:12:50;7.93;;;5.35;;
27491;SDS011;14927;51.210;6.838;2023-12-04T15:15:53;9.93;;;5.18;;
27491;SDS011;14927;51.210;6.838;2023-12-04T15:19:09;7.47;;;5.63;;
27491;SDS011;14927;51.210;6.838;2023-12-04T15:21:54;7.85;;;5.28;;
27491;SDS011;14927;51.210;6.838;2023-12-04T15:24:39;11.30;;;5.18;;
27491;SDS011;14927;51.210;6.838;2023-12-04T15:27:23;7.30;;;5.28;;
27491;SDS011;14927;51.210;6.838;2023-12-04T15:30:08;7.72;;;4.88;;
27491;SDS011;14927;51.210;6.838;2023-12-04T15:32:53;7.95;;;5.57;;
27491;SDS011;14927;51.210;6.838;2023-12-04T15:35:38;7.68;;;5.18;;
27491;SDS011;14927;51.210;6.838;2023-12-04T15:38:26;7.63;;;5.53;;
27491;SDS011;14927;51.210;6.838;2023-12-04T15:41:10;11.30;;;5.47;;
27491;SDS011;14927;51.210;6.838;2023-12-04T15:43:57;6.07;;;5.03;;
27491;SDS011;14927;51.210;6.838;2023-12-04T15:46:42;7.45;;;5.38;;
27491;SDS011;14927;51.210;6.838;2023-12-04T15:49:27;8.38;;;5.35;;
27491;SDS011;14927;51.210;6.838;2023-12-04T15:52:11;6.45;;;4.95;;
27491;SDS011;14927;51.210;6.838;2023-12-04T15:54:56;9.40;;;4.82;;
27491;SDS011;14927;51.210;6.838;2023-12-04T15:57:41;6.72;;;4.78;;
27491;SDS011;14927;51.210;6.838;2023-12-04T16:00:28;7.57;;;5.47;;
27491;SDS011;14927;51.210;6.838;2023-12-04T16:03:12;8.32;;;5.47;;
27491;SDS011;14927;51.210;6.838;2023-12-04T16:05:57;7.22;;;5.43;;
27491;SDS011;14927;51.210;6.838;2023-12-04T16:08:42;9.90;;;5.55;;
27491;SDS011;14927;51.210;6.838;2023-12-04T16:11:28;8.82;;;5.72;;
27491;SDS011;14927;51.210;6.838;2023-12-04T16:14:12;8.82;;;5.20;;
27491;SDS011;14927;51.210;6.838;2023-12-04T16:16:57;6.88;;;4.82;;
27491;SDS011;14927;51.210;6.838;2023-12-04T16:19:42;8.70;;;5.63;;
27491;SDS011;14927;51.210;6.838;2023-12-04T16:22:27;8.55;;;5.72;;
27491;SDS011;14927;51.210;6.838;2023-12-04T16:25:11;8.65;;;5.38;;
27491;SDS011;14927;51.210;6.838;2023-12-04T16:28:01;7.20;;;4.95;;
27491;SDS011;14927;51.210;6.838;2023-12-04T16:30:46;7.68;;;5.57;;